sensor_id;sensor_type;location;lat;lon;timestamp;pressure;altitude;pressure_sealevel;temperature;humidity
68822;BME280;55834;50.870;4.606;2024-03-22T00:00:00;101552.16;;;11.92;58.39
68822;BME280;55834;50.870;4.606;2024-03-22T00:02:26;101556.47;;;11.52;59.55
68822;BME280;55834;50.870;4.606;2024-03-22T00:04:51;101552.63;;;11.70;60.03
68822;BME280;55834;50.870;4.606;2024-03-22T00:07:17;101547.19;;;11.77;59.37
68822;BME280;55834;50.870;4.606;2024-03-22T00:09:42;101544.81;;;11.64;59.34
68822;BME280;55834;50.870;4.606;2024-03-22T00:12:07;101541.38;;;11.61;59.74
68822;BME280;55834;50.870;4.606;2024-03-22T00:14:33;101541.44;;;11.55;59.98
68822;BME280;55834;50.870;4.606;2024-03-22T00:16:58;101540.19;;;11.74;60.06
68822;BME280;55834;50.870;4.606;2024-03-22T00:19:24;101539.59;;;11.61;59.46
68822;BME280;55834;50.870;4.606;2024-03-22T00:21:49;101528.59;;;11.81;59.38
68822;BME280;55834;50.870;4.606;2024-03-22T00:24:15;101523.47;;;11.72;59.27
68822;BME280;55834;50.870;4.606;2024-03-22T00:26:40;101520.53;;;11.86;59.46
68822;BME280;55834;50.870;4.606;2024-03-22T00:29:05;101515.31;;;11.83;58.91
68822;BME280;55834;50.870;4.606;2024-03-22T00:31:33;101517.03;;;11.85;58.83
68822;BME280;55834;50.870;4.606;2024-03-22T00:33:58;101518.81;;;11.85;58.84
68822;BME280;55834;50.870;4.606;2024-03-22T00:36:23;101526.25;;;11.66;59.72
68822;BME280;55834;50.870;4.606;2024-03-22T00:38:49;101524.44;;;11.68;59.58
68822;BME280;55834;50.870;4.606;2024-03-22T00:41:14;101528.00;;;11.67;59.26
68822;BME280;55834;50.870;4.606;2024-03-22T00:43:40;101520.69;;;11.80;59.82
68822;BME280;55834;50.870;4.606;2024-03-22T00:46:05;101518.75;;;11.88;59.11
68822;BME280;55834;50.870;4.606;2024-03-22T00:48:31;101514.47;;;11.82;58.76
68822;BME280;55834;50.870;4.606;2024-03-22T00:50:56;101516.84;;;11.94;58.84
68822;BME280;55834;50.870;4.606;2024-03-22T00:53:22;101515.84;;;12.00;58.84
68822;BME280;55834;50.870;4.606;2024-03-22T00:55:47;101511.25;;;12.07;58.11
68822;BME280;55834;50.870;4.606;2024-03-22T00:58:19;101506.94;;;12.04;58.01
68822;BME280;55834;50.870;4.606;2024-03-22T01:00:45;101504.97;;;12.12;58.19
68822;BME280;55834;50.870;4.606;2024-03-22T01:03:11;101507.69;;;12.09;57.66
68822;BME280;55834;50.870;4.606;2024-03-22T01:05:36;101491.72;;;12.12;57.46
68822;BME280;55834;50.870;4.606;2024-03-22T01:08:02;101492.72;;;12.07;56.93
68822;BME280;55834;50.870;4.606;2024-03-22T01:10:28;101492.06;;;11.99;57.34
68822;BME280;55834;50.870;4.606;2024-03-22T01:12:53;101482.44;;;11.94;58.17
68822;BME280;55834;50.870;4.606;2024-03-22T01:15:18;101480.56;;;12.00;58.21
68822;BME280;55834;50.870;4.606;2024-03-22T01:17:44;101472.63;;;11.98;57.01
68822;BME280;55834;50.870;4.606;2024-03-22T01:20:10;101468.34;;;11.94;57.20
68822;BME280;55834;50.870;4.606;2024-03-22T01:22:35;101465.97;;;11.82;56.82
68822;BME280;55834;50.870;4.606;2024-03-22T01:25:02;101465.22;;;11.75;57.76
68822;BME280;55834;50.870;4.606;2024-03-22T01:27:28;101458.91;;;11.81;57.67
68822;BME280;55834;50.870;4.606;2024-03-22T01:29:53;101452.59;;;11.88;57.18
68822;BME280;55834;50.870;4.606;2024-03-22T01:32:18;101448.53;;;11.71;56.86
68822;BME280;55834;50.870;4.606;2024-03-22T01:34:44;101445.75;;;11.36;58.61
68822;BME280;55834;50.870;4.606;2024-03-22T01:37:09;101440.72;;;11.22;57.51
68822;BME280;55834;50.870;4.606;2024-03-22T01:39:35;101442.50;;;11.21;57.80
68822;BME280;55834;50.870;4.606;2024-03-22T01:42:00;101444.88;;;11.35;58.31
68822;BME280;55834;50.870;4.606;2024-03-22T01:44:27;101441.66;;;11.21;57.34
68822;BME280;55834;50.870;4.606;2024-03-22T01:46:53;101440.72;;;11.23;57.71
68822;BME280;55834;50.870;4.606;2024-03-22T01:49:19;101441.88;;;11.52;58.18
68822;BME280;55834;50.870;4.606;2024-03-22T01:51:44;101448.22;;;11.43;57.73
68822;BME280;55834;50.870;4.606;2024-03-22T01:54:10;101441.00;;;11.51;57.15
68822;BME280;55834;50.870;4.606;2024-03-22T01:56:39;101439.34;;;11.46;56.45
68822;BME280;55834;50.870;4.606;2024-03-22T01:59:05;101443.00;;;11.40;56.43
68822;BME280;55834;50.870;4.606;2024-03-22T02:01:31;101442.78;;;11.51;56.53
68822;BME280;55834;50.870;4.606;2024-03-22T02:03:57;101437.63;;;11.00;57.23
68822;BME280;55834;50.870;4.606;2024-03-22T02:06:23;101437.09;;;11.27;57.11
68822;BME280;55834;50.870;4.606;2024-03-22T02:08:48;101429.94;;;11.33;55.81
68822;BME280;55834;50.870;4.606;2024-03-22T02:11:13;101422.59;;;11.47;56.31
68822;BME280;55834;50.870;4.606;2024-03-22T02:13:39;101416.41;;;11.48;55.39
68822;BME280;55834;50.870;4.606;2024-03-22T02:16:05;101416.72;;;11.33;56.23
68822;BME280;55834;50.870;4.606;2024-03-22T02:18:30;101413.84;;;11.43;56.08
68822;BME280;55834;50.870;4.606;2024-03-22T02:20:59;101418.72;;;11.21;55.10
68822;BME280;55834;50.870;4.606;2024-03-22T02:23:37;101407.22;;;10.79;57.17
68822;BME280;55834;50.870;4.606;2024-03-22T02:26:03;101416.53;;;10.98;57.85
68822;BME280;55834;50.870;4.606;2024-03-22T02:28:31;101404.53;;;10.80;56.85
68822;BME280;55834;50.870;4.606;2024-03-22T02:30:58;101406.28;;;10.81;56.88
68822;BME280;55834;50.870;4.606;2024-03-22T02:33:23;101405.81;;;11.06;57.45
68822;BME280;55834;50.870;4.606;2024-03-22T02:35:49;101400.53;;;11.06;56.91
68822;BME280;55834;50.870;4.606;2024-03-22T02:38:16;101402.00;;;11.21;56.40
68822;BME280;55834;50.870;4.606;2024-03-22T02:40:45;101393.59;;;11.00;56.96
68822;BME280;55834;50.870;4.606;2024-03-22T02:43:11;101395.09;;;10.69;57.75
68822;BME280;55834;50.870;4.606;2024-03-22T02:45:37;101385.16;;;10.81;58.99
68822;BME280;55834;50.870;4.606;2024-03-22T02:48:02;101383.59;;;10.71;57.72
68822;BME280;55834;50.870;4.606;2024-03-22T02:50:28;101379.88;;;10.81;57.80
68822;BME280;55834;50.870;4.606;2024-03-22T02:52:53;101375.97;;;11.01;57.67
68822;BME280;55834;50.870;4.606;2024-03-22T02:55:18;101379.94;;;10.78;58.04
68822;BME280;55834;50.870;4.606;2024-03-22T02:57:44;101374.50;;;10.86;58.37
68822;BME280;55834;50.870;4.606;2024-03-22T03:00:10;101381.25;;;11.01;57.84
68822;BME280;55834;50.870;4.606;2024-03-22T03:02:36;101367.88;;;11.08;57.08
68822;BME280;55834;50.870;4.606;2024-03-22T03:05:01;101364.34;;;11.10;56.94
68822;BME280;55834;50.870;4.606;2024-03-22T03:07:27;101365.22;;;11.08;57.56
68822;BME280;55834;50.870;4.606;2024-03-22T03:09:55;101369.06;;;10.94;57.07
68822;BME280;55834;50.870;4.606;2024-03-22T03:12:20;101356.97;;;10.82;57.84
68822;BME280;55834;50.870;4.606;2024-03-22T03:14:46;101351.78;;;10.77;57.40
68822;BME280;55834;50.870;4.606;2024-03-22T03:17:11;101356.94;;;10.83;57.23
68822;BME280;55834;50.870;4.606;2024-03-22T03:19:37;101348.44;;;11.11;56.61
68822;BME280;55834;50.870;4.606;2024-03-22T03:22:03;101348.16;;;11.25;56.24
68822;BME280;55834;50.870;4.606;2024-03-22T03:24:28;101350.00;;;11.21;56.36
68822;BME280;55834;50.870;4.606;2024-03-22T03:26:54;101353.25;;;10.92;56.74
68822;BME280;55834;50.870;4.606;2024-03-22T03:29:19;101349.56;;;10.99;57.09
68822;BME280;55834;50.870;4.606;2024-03-22T03:31:45;101352.88;;;10.14;58.59
68822;BME280;55834;50.870;4.606;2024-03-22T03:34:10;101350.56;;;10.49;58.19
68822;BME280;55834;50.870;4.606;2024-03-22T03:36:35;101353.09;;;10.53;57.57
68822;BME280;55834;50.870;4.606;2024-03-22T03:39:01;101339.25;;;10.89;57.58
68822;BME280;55834;50.870;4.606;2024-03-22T03:41:28;101337.34;;;10.94;56.82
68822;BME280;55834;50.870;4.606;2024-03-22T03:43:53;101334.94;;;10.33;57.60
68822;BME280;55834;50.870;4.606;2024-03-22T03:46:18;101326.03;;;10.87;57.68
68822;BME280;55834;50.870;4.606;2024-03-22T03:48:44;101321.34;;;10.56;57.01
68822;BME280;55834;50.870;4.606;2024-03-22T03:51:09;101320.03;;;10.79;56.96
68822;BME280;55834;50.870;4.606;2024-03-22T03:53:34;101321.75;;;10.33;57.90
68822;BME280;55834;50.870;4.606;2024-03-22T03:56:00;101314.75;;;10.79;57.46
68822;BME280;55834;50.870;4.606;2024-03-22T03:58:25;101308.28;;;10.94;56.76
68822;BME280;55834;50.870;4.606;2024-03-22T04:00:51;101302.06;;;10.96;56.01
68822;BME280;55834;50.870;4.606;2024-03-22T04:03:16;101306.16;;;11.11;56.06
68822;BME280;55834;50.870;4.606;2024-03-22T04:05:42;101302.22;;;11.30;55.19
68822;BME280;55834;50.870;4.606;2024-03-22T04:08:07;101294.34;;;10.87;56.30
68822;BME280;55834;50.870;4.606;2024-03-22T04:10:32;101299.31;;;10.09;58.58
68822;BME280;55834;50.870;4.606;2024-03-22T04:12:58;101308.09;;;10.10;58.05
68822;BME280;55834;50.870;4.606;2024-03-22T04:15:23;101302.41;;;10.33;57.67
68822;BME280;55834;50.870;4.606;2024-03-22T04:17:49;101291.91;;;10.76;57.73
68822;BME280;55834;50.870;4.606;2024-03-22T04:20:14;101285.84;;;10.73;56.69
68822;BME280;55834;50.870;4.606;2024-03-22T04:22:39;101292.38;;;10.97;56.25
68822;BME280;55834;50.870;4.606;2024-03-22T04:25:05;101290.03;;;10.83;55.91
68822;BME280;55834;50.870;4.606;2024-03-22T04:27:31;101297.38;;;10.67;56.58
68822;BME280;55834;50.870;4.606;2024-03-22T04:29:56;101287.28;;;10.89;56.03
68822;BME280;55834;50.870;4.606;2024-03-22T04:32:22;101289.66;;;11.00;55.39
68822;BME280;55834;50.870;4.606;2024-03-22T04:34:47;101287.41;;;10.36;57.49
68822;BME280;55834;50.870;4.606;2024-03-22T04:37:13;101290.19;;;10.75;56.83
68822;BME280;55834;50.870;4.606;2024-03-22T04:39:40;101285.03;;;10.69;55.80
68822;BME280;55834;50.870;4.606;2024-03-22T04:42:06;101279.22;;;10.52;56.78
68822;BME280;55834;50.870;4.606;2024-03-22T04:44:32;101283.19;;;10.25;57.36
68822;BME280;55834;50.870;4.606;2024-03-22T04:46:57;101276.25;;;10.67;56.98
68822;BME280;55834;50.870;4.606;2024-03-22T04:49:23;101268.25;;;10.72;56.59
68822;BME280;55834;50.870;4.606;2024-03-22T04:51:48;101270.38;;;10.53;56.39
68822;BME280;55834;50.870;4.606;2024-03-22T04:54:14;101269.06;;;10.29;57.20
68822;BME280;55834;50.870;4.606;2024-03-22T04:56:40;101265.75;;;10.16;58.39
68822;BME280;55834;50.870;4.606;2024-03-22T04:59:05;101272.75;;;10.20;58.10
68822;BME280;55834;50.870;4.606;2024-03-22T05:01:31;101269.06;;;10.29;58.24
68822;BME280;55834;50.870;4.606;2024-03-22T05:03:56;101277.50;;;10.48;57.23
68822;BME280;55834;50.870;4.606;2024-03-22T05:06:22;101269.97;;;10.26;57.31
68822;BME280;55834;50.870;4.606;2024-03-22T05:08:47;101280.72;;;10.15;58.69
68822;BME280;55834;50.870;4.606;2024-03-22T05:11:12;101275.75;;;9.99;58.29
68822;BME280;55834;50.870;4.606;2024-03-22T05:13:38;101272.97;;;10.06;59.47
68822;BME280;55834;50.870;4.606;2024-03-22T05:16:05;101268.47;;;10.13;57.87
68822;BME280;55834;50.870;4.606;2024-03-22T05:18:31;101268.31;;;10.21;58.34
68822;BME280;55834;50.870;4.606;2024-03-22T05:20:56;101258.84;;;10.58;57.73
68822;BME280;55834;50.870;4.606;2024-03-22T05:23:21;101262.53;;;10.50;57.83
68822;BME280;55834;50.870;4.606;2024-03-22T05:25:47;101261.41;;;10.15;58.25
68822;BME280;55834;50.870;4.606;2024-03-22T05:28:12;101252.31;;;9.82;58.42
68822;BME280;55834;50.870;4.606;2024-03-22T05:30:38;101265.56;;;10.27;58.16
68822;BME280;55834;50.870;4.606;2024-03-22T05:33:03;101261.34;;;10.18;57.69
68822;BME280;55834;50.870;4.606;2024-03-22T05:35:28;101262.09;;;10.25;57.59
68822;BME280;55834;50.870;4.606;2024-03-22T05:37:54;101259.97;;;10.45;58.35
68822;BME280;55834;50.870;4.606;2024-03-22T05:40:19;101253.59;;;10.07;58.35
68822;BME280;55834;50.870;4.606;2024-03-22T05:42:45;101249.09;;;10.14;58.89
68822;BME280;55834;50.870;4.606;2024-03-22T05:45:10;101255.66;;;9.91;58.85
68822;BME280;55834;50.870;4.606;2024-03-22T05:47:35;101255.53;;;9.99;59.18
68822;BME280;55834;50.870;4.606;2024-03-22T05:50:02;101250.38;;;9.91;59.17
68822;BME280;55834;50.870;4.606;2024-03-22T05:52:28;101249.16;;;10.11;58.46
68822;BME280;55834;50.870;4.606;2024-03-22T05:54:54;101244.75;;;10.11;58.92
68822;BME280;55834;50.870;4.606;2024-03-22T05:57:20;101247.47;;;9.56;60.42
68822;BME280;55834;50.870;4.606;2024-03-22T05:59:45;101251.53;;;9.75;59.65
68822;BME280;55834;50.870;4.606;2024-03-22T06:02:11;101248.75;;;10.34;58.96
68822;BME280;55834;50.870;4.606;2024-03-22T06:04:36;101246.06;;;10.35;58.83
68822;BME280;55834;50.870;4.606;2024-03-22T06:07:02;101258.78;;;10.61;58.33
68822;BME280;55834;50.870;4.606;2024-03-22T06:09:29;101253.78;;;10.45;57.87
68822;BME280;55834;50.870;4.606;2024-03-22T06:12:11;101256.19;;;10.12;58.10
68822;BME280;55834;50.870;4.606;2024-03-22T06:14:37;101249.41;;;10.44;58.18
68822;BME280;55834;50.870;4.606;2024-03-22T06:17:03;101260.69;;;10.53;57.96
68822;BME280;55834;50.870;4.606;2024-03-22T06:19:29;101242.34;;;9.99;59.00
68822;BME280;55834;50.870;4.606;2024-03-22T06:21:54;101249.91;;;9.66;60.65
68822;BME280;55834;50.870;4.606;2024-03-22T06:24:20;101250.50;;;9.85;59.40
68822;BME280;55834;50.870;4.606;2024-03-22T06:26:45;101244.88;;;10.05;59.35
68822;BME280;55834;50.870;4.606;2024-03-22T06:29:11;101242.53;;;9.87;59.29
68822;BME280;55834;50.870;4.606;2024-03-22T06:31:36;101245.72;;;9.56;60.57
68822;BME280;55834;50.870;4.606;2024-03-22T06:34:01;101244.38;;;9.83;61.17
68822;BME280;55834;50.870;4.606;2024-03-22T06:36:31;101259.03;;;9.47;61.08
68822;BME280;55834;50.870;4.606;2024-03-22T06:39:00;101243.19;;;8.85;62.38
68822;BME280;55834;50.870;4.606;2024-03-22T06:41:25;101250.63;;;8.52;63.20
68822;BME280;55834;50.870;4.606;2024-03-22T06:43:51;101257.84;;;8.33;64.26
68822;BME280;55834;50.870;4.606;2024-03-22T06:46:17;101254.91;;;8.61;64.54
68822;BME280;55834;50.870;4.606;2024-03-22T06:48:42;101254.53;;;8.90;63.29
68822;BME280;55834;50.870;4.606;2024-03-22T06:51:08;101259.25;;;9.30;60.95
68822;BME280;55834;50.870;4.606;2024-03-22T06:53:34;101262.75;;;9.31;61.33
68822;BME280;55834;50.870;4.606;2024-03-22T06:55:59;101248.94;;;9.72;60.90
68822;BME280;55834;50.870;4.606;2024-03-22T06:58:25;101250.97;;;10.09;59.17
68822;BME280;55834;50.870;4.606;2024-03-22T07:00:50;101257.97;;;10.10;58.75
68822;BME280;55834;50.870;4.606;2024-03-22T07:03:16;101245.50;;;9.68;59.33
68822;BME280;55834;50.870;4.606;2024-03-22T07:05:42;101248.31;;;10.09;58.87
68822;BME280;55834;50.870;4.606;2024-03-22T07:08:08;101246.25;;;9.75;58.49
68822;BME280;55834;50.870;4.606;2024-03-22T07:10:33;101247.69;;;9.96;58.68
68822;BME280;55834;50.870;4.606;2024-03-22T07:12:59;101252.97;;;9.42;59.49
68822;BME280;55834;50.870;4.606;2024-03-22T07:15:24;101265.22;;;9.44;60.27
68822;BME280;55834;50.870;4.606;2024-03-22T07:17:50;101259.16;;;8.73;61.30
68822;BME280;55834;50.870;4.606;2024-03-22T07:20:17;101260.06;;;8.70;61.33
68822;BME280;55834;50.870;4.606;2024-03-22T07:22:42;101251.94;;;9.51;60.57
68822;BME280;55834;50.870;4.606;2024-03-22T07:25:08;101253.28;;;9.17;60.03
68822;BME280;55834;50.870;4.606;2024-03-22T07:27:35;101242.00;;;9.68;59.35
68822;BME280;55834;50.870;4.606;2024-03-22T07:30:01;101244.34;;;9.27;59.11
68822;BME280;55834;50.870;4.606;2024-03-22T07:32:26;101245.81;;;8.87;60.13
68822;BME280;55834;50.870;4.606;2024-03-22T07:34:52;101242.22;;;9.56;59.64
68822;BME280;55834;50.870;4.606;2024-03-22T07:37:17;101243.13;;;8.90;59.81
68822;BME280;55834;50.870;4.606;2024-03-22T07:39:43;101241.72;;;9.26;60.88
68822;BME280;55834;50.870;4.606;2024-03-22T07:42:08;101246.13;;;9.25;59.42
68822;BME280;55834;50.870;4.606;2024-03-22T07:44:33;101239.91;;;9.34;59.45
68822;BME280;55834;50.870;4.606;2024-03-22T07:46:59;101235.81;;;9.69;58.44
68822;BME280;55834;50.870;4.606;2024-03-22T07:49:24;101245.44;;;9.71;58.22
68822;BME280;55834;50.870;4.606;2024-03-22T07:51:49;101230.75;;;9.57;58.83
68822;BME280;55834;50.870;4.606;2024-03-22T07:54:16;101239.34;;;9.11;61.01
68822;BME280;55834;50.870;4.606;2024-03-22T07:56:41;101236.03;;;9.57;59.25
68822;BME280;55834;50.870;4.606;2024-03-22T07:59:06;101237.91;;;9.50;59.49
68822;BME280;55834;50.870;4.606;2024-03-22T08:01:32;101245.72;;;8.91;60.05
68822;BME280;55834;50.870;4.606;2024-03-22T08:03:57;101239.69;;;9.48;59.10
68822;BME280;55834;50.870;4.606;2024-03-22T08:06:22;101233.28;;;9.04;60.57
68822;BME280;55834;50.870;4.606;2024-03-22T08:08:48;101226.88;;;9.79;59.09
68822;BME280;55834;50.870;4.606;2024-03-22T08:11:13;101234.34;;;8.92;59.60
68822;BME280;55834;50.870;4.606;2024-03-22T08:13:38;101243.28;;;9.42;59.62
68822;BME280;55834;50.870;4.606;2024-03-22T08:16:04;101241.91;;;9.74;58.82
68822;BME280;55834;50.870;4.606;2024-03-22T08:18:31;101232.03;;;9.84;58.33
68822;BME280;55834;50.870;4.606;2024-03-22T08:20:57;101237.59;;;10.18;57.98
68822;BME280;55834;50.870;4.606;2024-03-22T08:23:24;101223.81;;;10.47;56.49
68822;BME280;55834;50.870;4.606;2024-03-22T08:25:49;101230.63;;;10.14;57.77
68822;BME280;55834;50.870;4.606;2024-03-22T08:28:15;101237.75;;;10.57;56.20
68822;BME280;55834;50.870;4.606;2024-03-22T08:30:41;101234.66;;;10.78;55.58
68822;BME280;55834;50.870;4.606;2024-03-22T08:33:07;101241.56;;;10.39;54.81
68822;BME280;55834;50.870;4.606;2024-03-22T08:35:33;101229.84;;;10.09;56.44
68822;BME280;55834;50.870;4.606;2024-03-22T08:37:58;101231.66;;;9.56;57.65
68822;BME280;55834;50.870;4.606;2024-03-22T08:40:24;101217.13;;;9.83;57.13
68822;BME280;55834;50.870;4.606;2024-03-22T08:42:49;101216.91;;;9.95;57.02
68822;BME280;55834;50.870;4.606;2024-03-22T08:45:15;101211.31;;;10.12;56.31
68822;BME280;55834;50.870;4.606;2024-03-22T08:47:42;101219.06;;;10.21;56.44
68822;BME280;55834;50.870;4.606;2024-03-22T08:50:08;101212.22;;;10.57;55.62
68822;BME280;55834;50.870;4.606;2024-03-22T08:52:33;101219.41;;;10.51;55.73
68822;BME280;55834;50.870;4.606;2024-03-22T08:55:00;101213.34;;;9.99;56.79
68822;BME280;55834;50.870;4.606;2024-03-22T08:57:26;101211.81;;;10.32;56.42
68822;BME280;55834;50.870;4.606;2024-03-22T08:59:51;101208.59;;;10.16;54.96
68822;BME280;55834;50.870;4.606;2024-03-22T09:02:17;101210.59;;;10.04;56.02
68822;BME280;55834;50.870;4.606;2024-03-22T09:04:42;101204.03;;;10.25;55.75
68822;BME280;55834;50.870;4.606;2024-03-22T09:07:07;101214.00;;;10.10;54.91
68822;BME280;55834;50.870;4.606;2024-03-22T09:09:33;101199.88;;;10.59;54.85
68822;BME280;55834;50.870;4.606;2024-03-22T09:11:58;101194.13;;;10.37;55.43
68822;BME280;55834;50.870;4.606;2024-03-22T09:14:24;101192.41;;;10.35;54.96
68822;BME280;55834;50.870;4.606;2024-03-22T09:16:49;101185.13;;;10.46;55.92
68822;BME280;55834;50.870;4.606;2024-03-22T09:19:14;101181.41;;;10.56;55.39
68822;BME280;55834;50.870;4.606;2024-03-22T09:21:40;101179.91;;;10.87;54.12
68822;BME280;55834;50.870;4.606;2024-03-22T09:24:05;101174.78;;;10.79;53.61
68822;BME280;55834;50.870;4.606;2024-03-22T09:26:32;101172.13;;;10.80;54.62
68822;BME280;55834;50.870;4.606;2024-03-22T09:28:57;101166.44;;;10.97;54.10
68822;BME280;55834;50.870;4.606;2024-03-22T09:31:23;101172.13;;;10.80;54.57
68822;BME280;55834;50.870;4.606;2024-03-22T09:33:48;101172.13;;;10.80;53.89
68822;BME280;55834;50.870;4.606;2024-03-22T09:36:13;101178.03;;;10.92;54.21
68822;BME280;55834;50.870;4.606;2024-03-22T09:38:39;101177.59;;;11.10;53.13
68822;BME280;55834;50.870;4.606;2024-03-22T09:41:04;101172.53;;;10.15;55.40
68822;BME280;55834;50.870;4.606;2024-03-22T09:43:31;101181.94;;;10.30;54.53
68822;BME280;55834;50.870;4.606;2024-03-22T09:45:58;101186.31;;;10.75;54.92
68822;BME280;55834;50.870;4.606;2024-03-22T09:48:23;101180.97;;;10.78;54.19
68822;BME280;55834;50.870;4.606;2024-03-22T09:50:49;101178.91;;;10.52;54.34
68822;BME280;55834;50.870;4.606;2024-03-22T09:53:19;101180.75;;;10.00;54.39
68822;BME280;55834;50.870;4.606;2024-03-22T09:55:46;101180.78;;;10.44;55.01
68822;BME280;55834;50.870;4.606;2024-03-22T09:58:12;101182.72;;;8.80;57.42
68822;BME280;55834;50.870;4.606;2024-03-22T10:00:37;101176.91;;;9.16;57.06
68822;BME280;55834;50.870;4.606;2024-03-22T10:03:03;101169.50;;;10.37;55.34
68822;BME280;55834;50.870;4.606;2024-03-22T10:05:29;101168.78;;;10.29;54.44
68822;BME280;55834;50.870;4.606;2024-03-22T10:07:55;101164.34;;;11.12;53.93
68822;BME280;55834;50.870;4.606;2024-03-22T10:10:21;101169.75;;;11.05;53.55
68822;BME280;55834;50.870;4.606;2024-03-22T10:12:47;101162.56;;;10.75;54.05
68822;BME280;55834;50.870;4.606;2024-03-22T10:15:12;101162.28;;;11.24;53.19
68822;BME280;55834;50.870;4.606;2024-03-22T10:17:39;101142.03;;;11.23;52.02
68822;BME280;55834;50.870;4.606;2024-03-22T10:20:05;101150.31;;;11.08;53.33
68822;BME280;55834;50.870;4.606;2024-03-22T10:22:57;101140.13;;;10.10;54.69
68822;BME280;55834;50.870;4.606;2024-03-22T10:25:23;101133.28;;;11.20;52.84
68822;BME280;55834;50.870;4.606;2024-03-22T10:27:49;101139.06;;;11.71;52.01
68822;BME280;55834;50.870;4.606;2024-03-22T10:30:16;101146.72;;;11.12;52.84
68822;BME280;55834;50.870;4.606;2024-03-22T10:32:43;101144.22;;;11.42;52.19
68822;BME280;55834;50.870;4.606;2024-03-22T10:35:12;101148.75;;;11.37;51.41
68822;BME280;55834;50.870;4.606;2024-03-22T10:37:38;101150.94;;;11.19;53.47
68822;BME280;55834;50.870;4.606;2024-03-22T10:40:04;101141.84;;;11.31;53.01
68822;BME280;55834;50.870;4.606;2024-03-22T10:42:37;101128.13;;;11.84;52.53
68822;BME280;55834;50.870;4.606;2024-03-22T10:45:03;101137.75;;;11.88;51.56
68822;BME280;55834;50.870;4.606;2024-03-22T10:47:32;101136.41;;;11.71;50.36
68822;BME280;55834;50.870;4.606;2024-03-22T10:50:05;101136.44;;;11.36;53.05
68822;BME280;55834;50.870;4.606;2024-03-22T10:52:34;101128.72;;;11.62;51.32
68822;BME280;55834;50.870;4.606;2024-03-22T10:55:02;101142.53;;;11.02;52.90
68822;BME280;55834;50.870;4.606;2024-03-22T10:57:30;101124.53;;;11.52;52.64
68822;BME280;55834;50.870;4.606;2024-03-22T10:59:56;101123.38;;;12.28;51.08
68822;BME280;55834;50.870;4.606;2024-03-22T11:02:24;101119.78;;;12.30;51.67
68822;BME280;55834;50.870;4.606;2024-03-22T11:04:58;101127.75;;;12.29;51.75
68822;BME280;55834;50.870;4.606;2024-03-22T11:07:28;101125.41;;;12.18;52.01
68822;BME280;55834;50.870;4.606;2024-03-22T11:09:57;101121.19;;;12.72;50.49
68822;BME280;55834;50.870;4.606;2024-03-22T11:12:27;101111.34;;;13.03;49.98
68822;BME280;55834;50.870;4.606;2024-03-22T11:14:53;101121.38;;;12.94;49.47
68822;BME280;55834;50.870;4.606;2024-03-22T11:17:19;101119.06;;;11.92;51.56
68822;BME280;55834;50.870;4.606;2024-03-22T11:19:46;101114.69;;;11.93;51.05
68822;BME280;55834;50.870;4.606;2024-03-22T11:22:12;101103.25;;;12.22;51.03
68822;BME280;55834;50.870;4.606;2024-03-22T11:24:38;101102.91;;;12.33;50.02
68822;BME280;55834;50.870;4.606;2024-03-22T11:27:03;101093.78;;;12.43;50.55
68822;BME280;55834;50.870;4.606;2024-03-22T11:29:29;101105.63;;;12.31;49.99
68822;BME280;55834;50.870;4.606;2024-03-22T11:31:54;101102.78;;;12.08;50.58
68822;BME280;55834;50.870;4.606;2024-03-22T11:34:20;101097.50;;;12.37;50.09
68822;BME280;55834;50.870;4.606;2024-03-22T11:36:45;101111.28;;;11.19;51.57
68822;BME280;55834;50.870;4.606;2024-03-22T11:39:11;101102.13;;;12.00;50.34
68822;BME280;55834;50.870;4.606;2024-03-22T11:41:36;101091.81;;;11.58;52.05
68822;BME280;55834;50.870;4.606;2024-03-22T11:44:02;101102.53;;;11.51;51.69
68822;BME280;55834;50.870;4.606;2024-03-22T11:46:28;101095.53;;;11.49;52.39
68822;BME280;55834;50.870;4.606;2024-03-22T11:48:53;101093.72;;;11.18;52.42
68822;BME280;55834;50.870;4.606;2024-03-22T11:51:20;101096.44;;;11.82;51.90
68822;BME280;55834;50.870;4.606;2024-03-22T11:53:52;101089.06;;;11.62;52.42
68822;BME280;55834;50.870;4.606;2024-03-22T11:56:19;101085.03;;;11.47;52.42
68822;BME280;55834;50.870;4.606;2024-03-22T11:58:48;101078.72;;;11.86;51.51
68822;BME280;55834;50.870;4.606;2024-03-22T12:01:17;101072.56;;;11.85;51.88
68822;BME280;55834;50.870;4.606;2024-03-22T12:03:46;101074.47;;;12.10;51.06
68822;BME280;55834;50.870;4.606;2024-03-22T12:06:12;101060.75;;;12.27;50.73
68822;BME280;55834;50.870;4.606;2024-03-22T12:08:38;101066.13;;;12.24;50.79
68822;BME280;55834;50.870;4.606;2024-03-22T12:11:07;101055.25;;;11.41;52.55
68822;BME280;55834;50.870;4.606;2024-03-22T12:13:32;101067.47;;;10.75;54.44
68822;BME280;55834;50.870;4.606;2024-03-22T12:15:58;101053.56;;;11.04;53.80
68822;BME280;55834;50.870;4.606;2024-03-22T12:18:23;101041.53;;;11.26;53.08
68822;BME280;55834;50.870;4.606;2024-03-22T12:20:49;101042.88;;;11.41;52.03
68822;BME280;55834;50.870;4.606;2024-03-22T12:23:14;101049.88;;;11.10;52.93
68822;BME280;55834;50.870;4.606;2024-03-22T12:25:39;101031.16;;;11.19;52.70
68822;BME280;55834;50.870;4.606;2024-03-22T12:28:05;101038.72;;;11.33;52.78
68822;BME280;55834;50.870;4.606;2024-03-22T12:30:31;101030.81;;;11.31;53.43
68822;BME280;55834;50.870;4.606;2024-03-22T12:32:57;101043.94;;;11.00;52.77
68822;BME280;55834;50.870;4.606;2024-03-22T12:35:23;101032.84;;;11.21;52.34
68822;BME280;55834;50.870;4.606;2024-03-22T12:37:48;101031.84;;;11.25;53.21
68822;BME280;55834;50.870;4.606;2024-03-22T12:40:14;101033.06;;;11.46;53.17
68822;BME280;55834;50.870;4.606;2024-03-22T12:42:40;101030.88;;;11.62;52.10
68822;BME280;55834;50.870;4.606;2024-03-22T12:45:06;101027.97;;;11.39;51.78